sensor_id;sensor_type;location;lat;lon;timestamp;temperature;humidity
65087;DHT22;52094;51.234;-2.310;2022-10-31T00:02:01;13.70;81.50
65087;DHT22;52094;51.234;-2.310;2022-10-31T00:05:45;13.70;81.50
65087;DHT22;52094;51.234;-2.310;2022-10-31T00:09:27;13.60;81.60
65087;DHT22;52094;51.234;-2.310;2022-10-31T00:13:09;13.60;81.50
65087;DHT22;52094;51.234;-2.310;2022-10-31T00:16:52;13.70;81.60
65087;DHT22;52094;51.234;-2.310;2022-10-31T00:20:34;13.70;81.60
65087;DHT22;52094;51.234;-2.310;2022-10-31T00:24:16;13.70;81.50
65087;DHT22;52094;51.234;-2.310;2022-10-31T00:27:58;13.70;81.40
65087;DHT22;52094;51.234;-2.310;2022-10-31T00:31:41;13.70;81.40
65087;DHT22;52094;51.234;-2.310;2022-10-31T00:35:23;13.70;81.30
65087;DHT22;52094;51.234;-2.310;2022-10-31T00:39:05;13.70;81.30
65087;DHT22;52094;51.234;-2.310;2022-10-31T00:42:47;13.70;81.30
65087;DHT22;52094;51.234;-2.310;2022-10-31T00:46:29;13.60;81.20
65087;DHT22;52094;51.234;-2.310;2022-10-31T00:50:11;13.60;81.20
65087;DHT22;52094;51.234;-2.310;2022-10-31T00:53:53;13.60;81.20
65087;DHT22;52094;51.234;-2.310;2022-10-31T00:57:35;13.50;81.30
65087;DHT22;52094;51.234;-2.310;2022-10-31T01:01:16;13.40;81.40
65087;DHT22;52094;51.234;-2.310;2022-10-31T01:04:59;13.40;81.50
65087;DHT22;52094;51.234;-2.310;2022-10-31T01:08:41;13.30;81.50
65087;DHT22;52094;51.234;-2.310;2022-10-31T01:12:24;13.30;81.80
65087;DHT22;52094;51.234;-2.310;2022-10-31T01:16:08;13.30;81.80
65087;DHT22;52094;51.234;-2.310;2022-10-31T01:19:50;13.30;81.90
65087;DHT22;52094;51.234;-2.310;2022-10-31T01:23:32;13.30;81.90
65087;DHT22;52094;51.234;-2.310;2022-10-31T01:27:14;13.30;81.90
65087;DHT22;52094;51.234;-2.310;2022-10-31T01:31:01;13.30;82.20
65087;DHT22;52094;51.234;-2.310;2022-10-31T01:34:43;13.30;82.30
65087;DHT22;52094;51.234;-2.310;2022-10-31T01:38:25;13.30;82.00
65087;DHT22;52094;51.234;-2.310;2022-10-31T01:42:19;13.40;82.00
65087;DHT22;52094;51.234;-2.310;2022-10-31T01:46:02;13.30;82.20
65087;DHT22;52094;51.234;-2.310;2022-10-31T01:49:53;13.40;82.60
65087;DHT22;52094;51.234;-2.310;2022-10-31T01:53:36;13.40;82.80
65087;DHT22;52094;51.234;-2.310;2022-10-31T01:57:20;13.50;82.50
65087;DHT22;52094;51.234;-2.310;2022-10-31T02:01:03;13.50;82.20
65087;DHT22;52094;51.234;-2.310;2022-10-31T02:04:48;13.50;82.30
65087;DHT22;52094;51.234;-2.310;2022-10-31T02:08:33;13.50;82.40
65087;DHT22;52094;51.234;-2.310;2022-10-31T02:12:16;13.50;82.80
65087;DHT22;52094;51.234;-2.310;2022-10-31T02:16:00;13.70;83.00
65087;DHT22;52094;51.234;-2.310;2022-10-31T02:31:36;13.80;82.80
65087;DHT22;52094;51.234;-2.310;2022-10-31T02:35:39;13.80;82.60
65087;DHT22;52094;51.234;-2.310;2022-10-31T02:39:26;13.80;82.60
65087;DHT22;52094;51.234;-2.310;2022-10-31T02:43:28;13.80;82.50
65087;DHT22;52094;51.234;-2.310;2022-10-31T02:47:17;13.80;83.10
65087;DHT22;52094;51.234;-2.310;2022-10-31T02:51:01;13.80;82.80
65087;DHT22;52094;51.234;-2.310;2022-10-31T02:54:46;13.80;82.70
65087;DHT22;52094;51.234;-2.310;2022-10-31T02:58:31;13.80;82.50
65087;DHT22;52094;51.234;-2.310;2022-10-31T03:06:57;13.70;83.00
65087;DHT22;52094;51.234;-2.310;2022-10-31T03:10:55;13.70;83.30
65087;DHT22;52094;51.234;-2.310;2022-10-31T03:14:46;13.70;83.00
65087;DHT22;52094;51.234;-2.310;2022-10-31T03:18:32;13.70;82.90
65087;DHT22;52094;51.234;-2.310;2022-10-31T03:22:28;13.70;82.90
65087;DHT22;52094;51.234;-2.310;2022-10-31T03:26:12;13.80;83.50
65087;DHT22;52094;51.234;-2.310;2022-10-31T03:29:57;13.80;83.10
65087;DHT22;52094;51.234;-2.310;2022-10-31T03:33:42;13.90;83.10
65087;DHT22;52094;51.234;-2.310;2022-10-31T03:37:26;13.90;83.10
65087;DHT22;52094;51.234;-2.310;2022-10-31T03:45:04;14.00;83.20
65087;DHT22;52094;51.234;-2.310;2022-10-31T03:48:48;14.10;83.50
65087;DHT22;52094;51.234;-2.310;2022-10-31T03:52:43;14.20;83.00
65087;DHT22;52094;51.234;-2.310;2022-10-31T03:56:36;14.20;83.00
65087;DHT22;52094;51.234;-2.310;2022-10-31T04:00:19;14.20;82.70
65087;DHT22;52094;51.234;-2.310;2022-10-31T04:04:02;14.20;82.70
65087;DHT22;52094;51.234;-2.310;2022-10-31T04:07:47;14.20;82.90
65087;DHT22;52094;51.234;-2.310;2022-10-31T04:11:36;14.20;83.20
65087;DHT22;52094;51.234;-2.310;2022-10-31T04:15:19;14.20;83.20
65087;DHT22;52094;51.234;-2.310;2022-10-31T04:19:02;14.30;83.10
65087;DHT22;52094;51.234;-2.310;2022-10-31T04:22:44;14.30;83.10
65087;DHT22;52094;51.234;-2.310;2022-10-31T04:26:26;14.40;83.10
65087;DHT22;52094;51.234;-2.310;2022-10-31T04:30:08;14.40;83.00
65087;DHT22;52094;51.234;-2.310;2022-10-31T04:33:51;14.40;82.90
65087;DHT22;52094;51.234;-2.310;2022-10-31T04:37:33;14.40;82.90
65087;DHT22;52094;51.234;-2.310;2022-10-31T04:41:15;14.30;82.90
65087;DHT22;52094;51.234;-2.310;2022-10-31T04:44:57;14.40;82.90
65087;DHT22;52094;51.234;-2.310;2022-10-31T04:48:39;14.40;82.90
65087;DHT22;52094;51.234;-2.310;2022-10-31T04:52:21;14.40;82.90
65087;DHT22;52094;51.234;-2.310;2022-10-31T04:56:03;14.40;82.70
65087;DHT22;52094;51.234;-2.310;2022-10-31T04:59:45;14.40;82.70
65087;DHT22;52094;51.234;-2.310;2022-10-31T05:03:27;14.40;82.60
65087;DHT22;52094;51.234;-2.310;2022-10-31T05:07:09;14.40;82.60
65087;DHT22;52094;51.234;-2.310;2022-10-31T05:10:51;14.30;82.50
65087;DHT22;52094;51.234;-2.310;2022-10-31T05:14:34;14.30;82.50
65087;DHT22;52094;51.234;-2.310;2022-10-31T05:18:16;14.20;82.50
65087;DHT22;52094;51.234;-2.310;2022-10-31T05:21:58;14.20;82.50
65087;DHT22;52094;51.234;-2.310;2022-10-31T05:25:40;14.10;82.50
65087;DHT22;52094;51.234;-2.310;2022-10-31T05:29:22;14.10;82.90
65087;DHT22;52094;51.234;-2.310;2022-10-31T05:33:05;14.10;83.20
65087;DHT22;52094;51.234;-2.310;2022-10-31T05:36:47;14.20;83.20
65087;DHT22;52094;51.234;-2.310;2022-10-31T05:40:29;14.20;83.20
65087;DHT22;52094;51.234;-2.310;2022-10-31T05:44:11;14.20;83.10
65087;DHT22;52094;51.234;-2.310;2022-10-31T05:47:55;14.20;83.00
65087;DHT22;52094;51.234;-2.310;2022-10-31T05:51:38;14.20;82.90
65087;DHT22;52094;51.234;-2.310;2022-10-31T05:55:20;14.10;82.80
65087;DHT22;52094;51.234;-2.310;2022-10-31T05:59:02;14.10;82.80
65087;DHT22;52094;51.234;-2.310;2022-10-31T06:02:44;14.10;82.70
65087;DHT22;52094;51.234;-2.310;2022-10-31T06:06:27;14.10;82.90
65087;DHT22;52094;51.234;-2.310;2022-10-31T06:10:09;14.10;82.80
65087;DHT22;52094;51.234;-2.310;2022-10-31T06:13:51;14.00;82.80
65087;DHT22;52094;51.234;-2.310;2022-10-31T06:17:34;14.00;82.80
65087;DHT22;52094;51.234;-2.310;2022-10-31T06:21:17;14.00;82.80
65087;DHT22;52094;51.234;-2.310;2022-10-31T06:25:00;13.90;82.90
65087;DHT22;52094;51.234;-2.310;2022-10-31T06:28:42;13.90;82.90
65087;DHT22;52094;51.234;-2.310;2022-10-31T06:32:24;13.90;82.80
65087;DHT22;52094;51.234;-2.310;2022-10-31T06:36:06;13.80;82.60
65087;DHT22;52094;51.234;-2.310;2022-10-31T06:39:48;13.70;82.60
65087;DHT22;52094;51.234;-2.310;2022-10-31T06:43:30;13.70;82.60
65087;DHT22;52094;51.234;-2.310;2022-10-31T06:47:12;13.60;82.60
65087;DHT22;52094;51.234;-2.310;2022-10-31T06:51:00;13.60;82.70
65087;DHT22;52094;51.234;-2.310;2022-10-31T06:54:45;13.60;82.80
65087;DHT22;52094;51.234;-2.310;2022-10-31T06:58:28;13.60;82.90
65087;DHT22;52094;51.234;-2.310;2022-10-31T07:02:10;13.50;82.90
65087;DHT22;52094;51.234;-2.310;2022-10-31T07:05:55;13.50;83.00
65087;DHT22;52094;51.234;-2.310;2022-10-31T07:09:38;13.50;82.90
65087;DHT22;52094;51.234;-2.310;2022-10-31T07:13:20;13.60;83.00
65087;DHT22;52094;51.234;-2.310;2022-10-31T07:17:10;13.50;83.00
65087;DHT22;52094;51.234;-2.310;2022-10-31T07:20:52;13.50;83.10
65087;DHT22;52094;51.234;-2.310;2022-10-31T07:24:34;13.50;83.20
65087;DHT22;52094;51.234;-2.310;2022-10-31T07:28:16;13.50;83.30
65087;DHT22;52094;51.234;-2.310;2022-10-31T07:31:58;13.60;83.30
65087;DHT22;52094;51.234;-2.310;2022-10-31T07:35:40;13.60;83.50
65087;DHT22;52094;51.234;-2.310;2022-10-31T07:39:23;13.70;83.50
65087;DHT22;52094;51.234;-2.310;2022-10-31T07:43:05;13.70;83.60
65087;DHT22;52094;51.234;-2.310;2022-10-31T07:46:56;13.70;83.50
65087;DHT22;52094;51.234;-2.310;2022-10-31T07:50:39;13.70;83.50
65087;DHT22;52094;51.234;-2.310;2022-10-31T07:54:21;13.80;83.50
65087;DHT22;52094;51.234;-2.310;2022-10-31T07:58:09;13.80;83.50
65087;DHT22;52094;51.234;-2.310;2022-10-31T08:01:51;13.90;83.70
65087;DHT22;52094;51.234;-2.310;2022-10-31T08:05:34;14.00;83.80
65087;DHT22;52094;51.234;-2.310;2022-10-31T08:09:16;14.20;83.80
65087;DHT22;52094;51.234;-2.310;2022-10-31T08:13:07;14.30;84.20
65087;DHT22;52094;51.234;-2.310;2022-10-31T08:16:49;14.50;83.90
65087;DHT22;52094;51.234;-2.310;2022-10-31T08:20:32;14.60;83.60
65087;DHT22;52094;51.234;-2.310;2022-10-31T08:24:14;14.70;83.80
65087;DHT22;52094;51.234;-2.310;2022-10-31T08:27:58;14.90;84.00
65087;DHT22;52094;51.234;-2.310;2022-10-31T08:31:42;15.10;84.30
65087;DHT22;52094;51.234;-2.310;2022-10-31T08:35:24;15.20;83.90
65087;DHT22;52094;51.234;-2.310;2022-10-31T08:39:06;15.40;83.00
65087;DHT22;52094;51.234;-2.310;2022-10-31T08:42:55;15.50;83.00
65087;DHT22;52094;51.234;-2.310;2022-10-31T08:46:38;15.60;82.80
65087;DHT22;52094;51.234;-2.310;2022-10-31T08:50:20;15.70;82.40
65087;DHT22;52094;51.234;-2.310;2022-10-31T08:54:02;15.80;82.60
65087;DHT22;52094;51.234;-2.310;2022-10-31T08:57:44;15.90;82.40
65087;DHT22;52094;51.234;-2.310;2022-10-31T09:01:28;16.10;82.70
65087;DHT22;52094;51.234;-2.310;2022-10-31T09:05:10;16.20;82.40
65087;DHT22;52094;51.234;-2.310;2022-10-31T09:08:52;16.40;82.80
65087;DHT22;52094;51.234;-2.310;2022-10-31T09:12:34;16.70;83.00
65087;DHT22;52094;51.234;-2.310;2022-10-31T09:16:17;17.20;84.70
65087;DHT22;52094;51.234;-2.310;2022-10-31T09:19:59;18.00;84.30
65087;DHT22;52094;51.234;-2.310;2022-10-31T09:23:41;18.30;82.50
65087;DHT22;52094;51.234;-2.310;2022-10-31T09:27:23;18.30;79.50
65087;DHT22;52094;51.234;-2.310;2022-10-31T09:31:05;18.20;78.50
65087;DHT22;52094;51.234;-2.310;2022-10-31T09:34:47;17.90;77.90
65087;DHT22;52094;51.234;-2.310;2022-10-31T09:38:29;17.60;78.20
65087;DHT22;52094;51.234;-2.310;2022-10-31T09:51:00;16.80;78.10
65087;DHT22;52094;51.234;-2.310;2022-10-31T09:55:22;16.80;78.50
65087;DHT22;52094;51.234;-2.310;2022-10-31T09:59:11;16.80;77.90
65087;DHT22;52094;51.234;-2.310;2022-10-31T10:06:43;16.80;78.50
65087;DHT22;52094;51.234;-2.310;2022-10-31T10:26:36;18.60;78.80
65087;DHT22;52094;51.234;-2.310;2022-10-31T10:30:35;19.70;77.50
65087;DHT22;52094;51.234;-2.310;2022-10-31T10:34:35;20.50;76.10
65087;DHT22;52094;51.234;-2.310;2022-10-31T10:38:41;20.50;73.80
65087;DHT22;52094;51.234;-2.310;2022-10-31T10:42:27;20.20;71.30
65087;DHT22;52094;51.234;-2.310;2022-10-31T10:46:40;19.70;72.50
65087;DHT22;52094;51.234;-2.310;2022-10-31T10:50:49;19.30;72.10
65087;DHT22;52094;51.234;-2.310;2022-10-31T10:58:32;18.30;71.90
65087;DHT22;52094;51.234;-2.310;2022-10-31T11:02:23;18.10;73.80
65087;DHT22;52094;51.234;-2.310;2022-10-31T11:06:19;18.00;73.90
65087;DHT22;52094;51.234;-2.310;2022-10-31T11:10:05;17.90;72.90
65087;DHT22;52094;51.234;-2.310;2022-10-31T11:14:04;18.30;75.10
65087;DHT22;52094;51.234;-2.310;2022-10-31T11:17:50;18.70;73.30
65087;DHT22;52094;51.234;-2.310;2022-10-31T11:21:32;18.80;72.40
65087;DHT22;52094;51.234;-2.310;2022-10-31T11:29:01;18.70;70.90
65087;DHT22;52094;51.234;-2.310;2022-10-31T11:32:49;18.70;71.40
65087;DHT22;52094;51.234;-2.310;2022-10-31T11:36:37;18.70;71.20
65087;DHT22;52094;51.234;-2.310;2022-10-31T11:40:25;19.20;71.50
65087;DHT22;52094;51.234;-2.310;2022-10-31T11:44:26;19.50;66.30
65087;DHT22;52094;51.234;-2.310;2022-10-31T11:48:20;20.10;69.00
65087;DHT22;52094;51.234;-2.310;2022-10-31T11:52:12;20.50;66.30
65087;DHT22;52094;51.234;-2.310;2022-10-31T11:56:13;20.10;63.30
65087;DHT22;52094;51.234;-2.310;2022-10-31T11:59:58;20.00;64.70
65087;DHT22;52094;51.234;-2.310;2022-10-31T12:03:48;20.20;68.10
65087;DHT22;52094;51.234;-2.310;2022-10-31T12:07:33;21.30;64.20
65087;DHT22;52094;51.234;-2.310;2022-10-31T12:11:37;22.70;64.00
65087;DHT22;52094;51.234;-2.310;2022-10-31T12:15:30;23.80;53.10
65087;DHT22;52094;51.234;-2.310;2022-10-31T12:19:36;24.70;58.10
65087;DHT22;52094;51.234;-2.310;2022-10-31T12:31:47;26.00;48.60
65087;DHT22;52094;51.234;-2.310;2022-10-31T12:39:52;25.30;52.50
65087;DHT22;52094;51.234;-2.310;2022-10-31T12:43:53;24.90;52.00
65087;DHT22;52094;51.234;-2.310;2022-10-31T12:59:50;23.90;53.20
65087;DHT22;52094;51.234;-2.310;2022-10-31T13:03:46;23.50;54.00
65087;DHT22;52094;51.234;-2.310;2022-10-31T13:07:41;22.50;53.00
65087;DHT22;52094;51.234;-2.310;2022-10-31T13:11:29;21.20;56.10
65087;DHT22;52094;51.234;-2.310;2022-10-31T13:15:18;20.20;58.20
65087;DHT22;52094;51.234;-2.310;2022-10-31T13:22:50;19.30;60.40
65087;DHT22;52094;51.234;-2.310;2022-10-31T13:26:45;19.10;61.60
65087;DHT22;52094;51.234;-2.310;2022-10-31T13:30:32;19.10;62.30
65087;DHT22;52094;51.234;-2.310;2022-10-31T13:34:33;19.00;60.90
65087;DHT22;52094;51.234;-2.310;2022-10-31T13:50:25;18.60;62.00
65087;DHT22;52094;51.234;-2.310;2022-10-31T13:54:30;18.40;62.20
65087;DHT22;52094;51.234;-2.310;2022-10-31T13:58:23;18.20;62.30
65087;DHT22;52094;51.234;-2.310;2022-10-31T14:02:16;18.10;62.90
65087;DHT22;52094;51.234;-2.310;2022-10-31T14:06:00;17.90;63.40
65087;DHT22;52094;51.234;-2.310;2022-10-31T14:10:06;17.80;63.70
65087;DHT22;52094;51.234;-2.310;2022-10-31T14:13:58;17.70;66.00
65087;DHT22;52094;51.234;-2.310;2022-10-31T14:18:03;17.40;64.10
65087;DHT22;52094;51.234;-2.310;2022-10-31T14:21:48;17.20;65.50
65087;DHT22;52094;51.234;-2.310;2022-10-31T14:25:34;17.20;66.30
65087;DHT22;52094;51.234;-2.310;2022-10-31T14:33:01;17.20;66.30
65087;DHT22;52094;51.234;-2.310;2022-10-31T14:45:29;16.60;68.50
65087;DHT22;52094;51.234;-2.310;2022-10-31T14:53:53;15.70;71.00
65087;DHT22;52094;51.234;-2.310;2022-10-31T14:57:37;15.30;69.70
65087;DHT22;52094;51.234;-2.310;2022-10-31T15:01:27;15.10;71.70
65087;DHT22;52094;51.234;-2.310;2022-10-31T15:05:11;15.00;71.70
65087;DHT22;52094;51.234;-2.310;2022-10-31T15:08:54;14.80;74.10
65087;DHT22;52094;51.234;-2.310;2022-10-31T15:12:36;14.70;74.20
65087;DHT22;52094;51.234;-2.310;2022-10-31T15:16:30;14.70;75.20
65087;DHT22;52094;51.234;-2.310;2022-10-31T15:20:21;14.70;74.50
65087;DHT22;52094;51.234;-2.310;2022-10-31T15:24:04;14.60;75.00
65087;DHT22;52094;51.234;-2.310;2022-10-31T15:27:48;14.60;75.10
65087;DHT22;52094;51.234;-2.310;2022-10-31T15:31:31;14.70;74.90
65087;DHT22;52094;51.234;-2.310;2022-10-31T15:35:28;14.70;76.80
65087;DHT22;52094;51.234;-2.310;2022-10-31T15:39:11;14.70;77.30
65087;DHT22;52094;51.234;-2.310;2022-10-31T15:42:57;14.60;77.70
65087;DHT22;52094;51.234;-2.310;2022-10-31T15:46:40;14.60;81.10
65087;DHT22;52094;51.234;-2.310;2022-10-31T15:50:52;14.50;78.40
65087;DHT22;52094;51.234;-2.310;2022-10-31T15:54:46;14.40;82.80
65087;DHT22;52094;51.234;-2.310;2022-10-31T15:58:29;14.20;81.00
65087;DHT22;52094;51.234;-2.310;2022-10-31T16:02:14;14.10;81.40
65087;DHT22;52094;51.234;-2.310;2022-10-31T16:06:02;14.00;83.60
65087;DHT22;52094;51.234;-2.310;2022-10-31T16:10:00;14.00;82.10
65087;DHT22;52094;51.234;-2.310;2022-10-31T16:14:03;13.90;82.90
65087;DHT22;52094;51.234;-2.310;2022-10-31T16:17:50;14.00;87.20
65087;DHT22;52094;51.234;-2.310;2022-10-31T16:21:38;13.90;86.30
65087;DHT22;52094;51.234;-2.310;2022-10-31T16:25:24;13.80;86.50
65087;DHT22;52094;51.234;-2.310;2022-10-31T16:29:33;13.80;85.50
65087;DHT22;52094;51.234;-2.310;2022-10-31T16:33:32;13.90;88.80
65087;DHT22;52094;51.234;-2.310;2022-10-31T16:37:17;13.90;88.40
65087;DHT22;52094;51.234;-2.310;2022-10-31T16:41:01;13.90;89.20
65087;DHT22;52094;51.234;-2.310;2022-10-31T16:44:44;13.80;88.00
65087;DHT22;52094;51.234;-2.310;2022-10-31T16:48:28;13.80;89.00
65087;DHT22;52094;51.234;-2.310;2022-10-31T16:52:10;13.80;88.70
65087;DHT22;52094;51.234;-2.310;2022-10-31T16:55:57;13.80;88.70
65087;DHT22;52094;51.234;-2.310;2022-10-31T16:59:41;13.90;88.80
65087;DHT22;52094;51.234;-2.310;2022-10-31T17:03:23;13.80;89.20
65087;DHT22;52094;51.234;-2.310;2022-10-31T17:07:05;13.70;87.80
65087;DHT22;52094;51.234;-2.310;2022-10-31T17:10:51;13.80;89.20
65087;DHT22;52094;51.234;-2.310;2022-10-31T17:14:33;13.70;90.10
65087;DHT22;52094;51.234;-2.310;2022-10-31T17:18:16;13.80;89.40
65087;DHT22;52094;51.234;-2.310;2022-10-31T17:22:10;13.70;89.90
65087;DHT22;52094;51.234;-2.310;2022-10-31T17:25:52;13.70;89.10
65087;DHT22;52094;51.234;-2.310;2022-10-31T17:29:34;13.80;88.10
65087;DHT22;52094;51.234;-2.310;2022-10-31T17:33:17;13.80;89.30
65087;DHT22;52094;51.234;-2.310;2022-10-31T17:36:59;13.80;88.40
65087;DHT22;52094;51.234;-2.310;2022-10-31T17:40:41;13.80;89.40
65087;DHT22;52094;51.234;-2.310;2022-10-31T17:44:23;13.80;89.60
65087;DHT22;52094;51.234;-2.310;2022-10-31T17:48:06;13.80;90.10
65087;DHT22;52094;51.234;-2.310;2022-10-31T17:51:53;13.80;90.00
65087;DHT22;52094;51.234;-2.310;2022-10-31T17:55:35;13.80;90.60
65087;DHT22;52094;51.234;-2.310;2022-10-31T17:59:18;13.80;90.00
65087;DHT22;52094;51.234;-2.310;2022-10-31T18:03:03;13.80;90.70
65087;DHT22;52094;51.234;-2.310;2022-10-31T18:06:46;13.80;89.90
65087;DHT22;52094;51.234;-2.310;2022-10-31T18:10:31;13.80;90.30
65087;DHT22;52094;51.234;-2.310;2022-10-31T18:14:13;13.90;89.30
65087;DHT22;52094;51.234;-2.310;2022-10-31T18:17:55;13.90;89.50
65087;DHT22;52094;51.234;-2.310;2022-10-31T18:21:37;14.00;88.60
65087;DHT22;52094;51.234;-2.310;2022-10-31T18:25:19;14.00;88.30
65087;DHT22;52094;51.234;-2.310;2022-10-31T18:29:02;14.00;88.60
65087;DHT22;52094;51.234;-2.310;2022-10-31T18:32:48;14.10;88.30
65087;DHT22;52094;51.234;-2.310;2022-10-31T18:36:31;14.10;87.40
65087;DHT22;52094;51.234;-2.310;2022-10-31T18:40:15;14.20;87.30
65087;DHT22;52094;51.234;-2.310;2022-10-31T18:44:01;14.20;87.20
65087;DHT22;52094;51.234;-2.310;2022-10-31T18:47:43;14.20;87.30
65087;DHT22;52094;51.234;-2.310;2022-10-31T18:51:25;14.30;87.30
65087;DHT22;52094;51.234;-2.310;2022-10-31T18:55:08;14.30;87.30
65087;DHT22;52094;51.234;-2.310;2022-10-31T18:58:50;14.40;87.30
65087;DHT22;52094;51.234;-2.310;2022-10-31T19:02:32;14.50;87.30
65087;DHT22;52094;51.234;-2.310;2022-10-31T19:06:15;14.50;87.20
65087;DHT22;52094;51.234;-2.310;2022-10-31T19:09:57;14.60;87.30
65087;DHT22;52094;51.234;-2.310;2022-10-31T19:13:46;14.60;87.20
65087;DHT22;52094;51.234;-2.310;2022-10-31T19:17:43;14.70;87.20
65087;DHT22;52094;51.234;-2.310;2022-10-31T19:21:26;14.70;87.20
65087;DHT22;52094;51.234;-2.310;2022-10-31T19:25:11;14.70;87.10
65087;DHT22;52094;51.234;-2.310;2022-10-31T19:28:55;14.70;87.10
65087;DHT22;52094;51.234;-2.310;2022-10-31T19:32:38;14.70;87.10
65087;DHT22;52094;51.234;-2.310;2022-10-31T19:36:22;14.70;87.20
65087;DHT22;52094;51.234;-2.310;2022-10-31T19:40:07;14.70;87.20
65087;DHT22;52094;51.234;-2.310;2022-10-31T19:43:52;14.70;87.20
65087;DHT22;52094;51.234;-2.310;2022-10-31T19:47:37;14.70;87.20
65087;DHT22;52094;51.234;-2.310;2022-10-31T19:51:20;14.70;87.20
65087;DHT22;52094;51.234;-2.310;2022-10-31T19:55:03;14.70;87.30
65087;DHT22;52094;51.234;-2.310;2022-10-31T19:58:46;14.60;87.30
65087;DHT22;52094;51.234;-2.310;2022-10-31T20:02:31;14.60;87.30
65087;DHT22;52094;51.234;-2.310;2022-10-31T20:06:21;14.60;87.40
65087;DHT22;52094;51.234;-2.310;2022-10-31T20:10:04;14.60;87.50
65087;DHT22;52094;51.234;-2.310;2022-10-31T20:13:47;14.60;87.40
65087;DHT22;52094;51.234;-2.310;2022-10-31T20:17:29;14.60;87.50
65087;DHT22;52094;51.234;-2.310;2022-10-31T20:21:18;14.60;87.50
65087;DHT22;52094;51.234;-2.310;2022-10-31T20:25:01;14.60;87.70
65087;DHT22;52094;51.234;-2.310;2022-10-31T20:28:43;14.60;87.60
65087;DHT22;52094;51.234;-2.310;2022-10-31T20:32:27;14.60;87.70
65087;DHT22;52094;51.234;-2.310;2022-10-31T20:36:17;14.50;87.70
65087;DHT22;52094;51.234;-2.310;2022-10-31T20:40:04;14.50;87.70
65087;DHT22;52094;51.234;-2.310;2022-10-31T20:43:48;14.50;87.70
65087;DHT22;52094;51.234;-2.310;2022-10-31T20:47:30;14.50;87.90
65087;DHT22;52094;51.234;-2.310;2022-10-31T20:51:22;14.50;87.70
65087;DHT22;52094;51.234;-2.310;2022-10-31T20:55:05;14.50;87.60
65087;DHT22;52094;51.234;-2.310;2022-10-31T20:58:48;14.40;87.40
65087;DHT22;52094;51.234;-2.310;2022-10-31T21:02:30;14.30;87.60
65087;DHT22;52094;51.234;-2.310;2022-10-31T21:06:13;14.20;87.70
65087;DHT22;52094;51.234;-2.310;2022-10-31T21:10:00;14.20;87.50
65087;DHT22;52094;51.234;-2.310;2022-10-31T21:13:44;14.00;87.90
65087;DHT22;52094;51.234;-2.310;2022-10-31T21:17:27;13.90;87.60
65087;DHT22;52094;51.234;-2.310;2022-10-31T21:21:20;13.70;87.60
65087;DHT22;52094;51.234;-2.310;2022-10-31T21:25:11;13.60;87.60
65087;DHT22;52094;51.234;-2.310;2022-10-31T21:28:56;13.40;87.60
65087;DHT22;52094;51.234;-2.310;2022-10-31T21:32:38;13.30;87.80
65087;DHT22;52094;51.234;-2.310;2022-10-31T21:36:21;13.20;88.00
65087;DHT22;52094;51.234;-2.310;2022-10-31T21:40:03;13.20;88.10
65087;DHT22;52094;51.234;-2.310;2022-10-31T21:43:47;13.20;88.10
65087;DHT22;52094;51.234;-2.310;2022-10-31T21:47:30;13.10;88.20
65087;DHT22;52094;51.234;-2.310;2022-10-31T21:51:17;13.10;88.20
65087;DHT22;52094;51.234;-2.310;2022-10-31T21:55:02;13.10;88.00
65087;DHT22;52094;51.234;-2.310;2022-10-31T21:58:48;13.00;88.10
65087;DHT22;52094;51.234;-2.310;2022-10-31T22:02:30;13.00;88.10
65087;DHT22;52094;51.234;-2.310;2022-10-31T22:06:13;12.90;88.10
65087;DHT22;52094;51.234;-2.310;2022-10-31T22:09:55;12.90;88.20
65087;DHT22;52094;51.234;-2.310;2022-10-31T22:13:38;12.90;88.20
65087;DHT22;52094;51.234;-2.310;2022-10-31T22:17:21;12.90;88.30
65087;DHT22;52094;51.234;-2.310;2022-10-31T22:21:11;12.90;88.50
65087;DHT22;52094;51.234;-2.310;2022-10-31T22:24:54;12.90;88.60
65087;DHT22;52094;51.234;-2.310;2022-10-31T22:28:36;12.80;88.50
65087;DHT22;52094;51.234;-2.310;2022-10-31T22:32:18;12.70;88.70
65087;DHT22;52094;51.234;-2.310;2022-10-31T22:36:04;12.70;88.40
65087;DHT22;52094;51.234;-2.310;2022-10-31T22:39:47;12.50;88.40
65087;DHT22;52094;51.234;-2.310;2022-10-31T22:43:29;12.40;88.40
65087;DHT22;52094;51.234;-2.310;2022-10-31T22:47:12;12.20;88.20
65087;DHT22;52094;51.234;-2.310;2022-10-31T22:50:55;12.20;88.40
65087;DHT22;52094;51.234;-2.310;2022-10-31T22:55:13;12.00;88.50
65087;DHT22;52094;51.234;-2.310;2022-10-31T22:59:06;11.90;88.50
65087;DHT22;52094;51.234;-2.310;2022-10-31T23:02:51;11.90;88.60
65087;DHT22;52094;51.234;-2.310;2022-10-31T23:06:33;11.80;88.70
65087;DHT22;52094;51.234;-2.310;2022-10-31T23:10:17;11.80;88.90
65087;DHT22;52094;51.234;-2.310;2022-10-31T23:14:03;11.80;88.80
65087;DHT22;52094;51.234;-2.310;2022-10-31T23:17:56;11.70;88.80
65087;DHT22;52094;51.234;-2.310;2022-10-31T23:21:43;11.70;88.80
65087;DHT22;52094;51.234;-2.310;2022-10-31T23:25:39;11.70;88.70
65087;DHT22;52094;51.234;-2.310;2022-10-31T23:29:51;11.70;88.80
65087;DHT22;52094;51.234;-2.310;2022-10-31T23:33:36;11.70;89.00
65087;DHT22;52094;51.234;-2.310;2022-10-31T23:37:24;11.60;89.00
65087;DHT22;52094;51.234;-2.310;2022-10-31T23:41:06;11.60;89.00
65087;DHT22;52094;51.234;-2.310;2022-10-31T23:44:49;11.70;89.00
65087;DHT22;52094;51.234;-2.310;2022-10-31T23:48:31;11.70;89.20
65087;DHT22;52094;51.234;-2.310;2022-10-31T23:52:13;11.70;89.30
65087;DHT22;52094;51.234;-2.310;2022-10-31T23:55:56;11.70;89.30
65087;DHT22;52094;51.234;-2.310;2022-10-31T23:59:38;11.70;89.50
